createdAt,value
2023-03-13T00:01:25.835Z,16.36
2023-03-13T00:04:27.361Z,16.34
2023-03-13T00:07:28.841Z,16.42
2023-03-13T00:10:30.322Z,16.41
2023-03-13T00:13:32.144Z,16.40
2023-03-13T00:16:35.615Z,16.30
2023-03-13T00:19:37.309Z,16.26
2023-03-13T00:22:38.862Z,16.34
2023-03-13T00:25:40.514Z,16.38
2023-03-13T00:28:45.680Z,16.40
2023-03-13T00:31:47.434Z,16.60
2023-03-13T00:38:06.005Z,16.69
2023-03-13T00:41:12.300Z,16.73
2023-03-13T00:44:14.377Z,16.83
2023-03-13T00:47:15.837Z,16.92
2023-03-13T00:50:18.271Z,16.90
2023-03-13T00:53:20.189Z,16.89
2023-03-13T00:56:22.342Z,16.85
2023-03-13T00:59:24.040Z,16.85
2023-03-13T01:02:25.634Z,16.93
2023-03-13T01:05:27.164Z,16.86
2023-03-13T01:08:29.579Z,16.91
2023-03-13T01:11:34.106Z,16.96
2023-03-13T01:14:35.636Z,17.03
2023-03-13T01:17:37.139Z,16.99
2023-03-13T01:20:40.927Z,16.96
2023-03-13T01:23:42.820Z,17.18
2023-03-13T01:26:44.800Z,17.22
2023-03-13T01:29:46.279Z,17.11
2023-03-13T01:32:47.797Z,17.11
2023-03-13T01:35:49.636Z,17.11
2023-03-13T01:38:54.266Z,17.15
2023-03-13T01:41:55.742Z,17.06
2023-03-13T01:44:57.553Z,17.05
2023-03-13T01:48:00.666Z,16.84
2023-03-13T01:51:41.561Z,16.76
2023-03-13T01:54:48.620Z,16.77
2023-03-13T01:57:53.337Z,16.72
2023-03-13T02:00:58.225Z,16.64
2023-03-13T02:03:59.991Z,16.55
2023-03-13T02:07:06.601Z,16.52
2023-03-13T02:10:10.904Z,16.43
2023-03-13T02:13:15.216Z,16.47
2023-03-13T02:16:17.645Z,16.42
2023-03-13T02:19:37.948Z,16.62
2023-03-13T02:22:54.524Z,16.53
2023-03-13T02:25:56.642Z,16.62
2023-03-13T02:29:05.325Z,16.64
2023-03-13T02:32:07.731Z,16.68
2023-03-13T02:35:14.746Z,16.64
2023-03-13T02:38:22.175Z,16.63
2023-03-13T02:41:25.574Z,16.78
2023-03-13T02:44:27.646Z,16.81
2023-03-13T02:47:29.289Z,16.77
2023-03-13T02:50:31.291Z,16.83
2023-03-13T02:53:35.041Z,16.70
2023-03-13T02:56:39.445Z,16.77
2023-03-13T02:59:41.885Z,16.88
2023-03-13T03:02:44.578Z,16.58
2023-03-13T03:05:46.123Z,16.80
2023-03-13T03:08:47.684Z,16.87
2023-03-13T03:11:50.158Z,16.85
2023-03-13T03:14:51.921Z,16.75
2023-03-13T03:17:54.029Z,16.74
2023-03-13T03:20:55.716Z,16.81
2023-03-13T03:23:57.384Z,16.85
2023-03-13T03:26:59.665Z,16.70
2023-03-13T03:30:07.148Z,16.61
2023-03-13T03:33:10.483Z,16.62
2023-03-13T03:36:15.352Z,16.63
2023-03-13T03:39:16.939Z,16.70
2023-03-13T03:42:19.099Z,16.77
2023-03-13T03:45:20.664Z,16.74
2023-03-13T03:48:22.794Z,16.74
2023-03-13T03:51:24.391Z,16.83
2023-03-13T03:54:26.293Z,16.71
2023-03-13T03:57:27.909Z,16.51
2023-03-13T04:00:29.459Z,16.38
2023-03-13T04:03:31.372Z,16.05
2023-03-13T04:06:33.232Z,16.14
2023-03-13T04:09:36.797Z,16.14
2023-03-13T04:12:41.014Z,16.06
2023-03-13T04:15:43.069Z,16.04
2023-03-13T04:18:45.881Z,16.24
2023-03-13T04:21:47.466Z,16.33
2023-03-13T04:24:53.154Z,16.42
2023-03-13T04:27:56.916Z,16.57
2023-03-13T04:31:02.895Z,16.69
2023-03-13T04:34:18.773Z,16.68
2023-03-13T04:37:26.363Z,16.72
2023-03-13T04:40:46.764Z,16.85
2023-03-13T04:44:00.439Z,16.88
2023-03-13T04:47:40.331Z,16.77
2023-03-13T04:51:00.198Z,16.92
2023-03-13T04:54:06.768Z,16.95
2023-03-13T04:57:18.137Z,16.98
2023-03-13T05:00:43.341Z,16.89
2023-03-13T05:04:00.945Z,16.66
2023-03-13T05:07:14.037Z,16.61
2023-03-13T05:10:38.820Z,16.67
2023-03-13T05:14:00.471Z,16.43
2023-03-13T05:17:24.776Z,16.06
2023-03-13T05:20:49.196Z,15.67
2023-03-13T05:24:03.288Z,15.84
2023-03-13T05:27:22.108Z,16.01
2023-03-13T05:30:47.373Z,16.03
2023-03-13T05:34:12.655Z,16.05
2023-03-13T05:37:49.332Z,16.23
2023-03-13T05:40:50.868Z,16.44
2023-03-13T05:44:11.484Z,16.73
2023-03-13T05:47:31.426Z,16.73
2023-03-13T05:50:39.037Z,16.56
2023-03-13T05:54:00.757Z,16.58
2023-03-13T05:57:17.372Z,16.87
2023-03-13T06:00:50.960Z,16.91
2023-03-13T06:04:12.724Z,16.82
2023-03-13T06:07:15.714Z,16.82
2023-03-13T06:10:17.814Z,16.82
2023-03-13T06:13:20.456Z,17.13
2023-03-13T06:16:25.445Z,16.97
2023-03-13T06:19:31.517Z,16.87
2023-03-13T06:22:33.018Z,17.01
2023-03-13T06:25:35.500Z,17.20
2023-03-13T06:28:37.044Z,17.04
2023-03-13T06:31:38.846Z,17.03
2023-03-13T06:34:40.567Z,17.12
2023-03-13T06:37:42.165Z,17.56
2023-03-13T06:40:44.210Z,17.56
2023-03-13T06:43:46.221Z,17.33
2023-03-13T06:46:47.796Z,17.39
2023-03-13T06:49:50.397Z,17.32
2023-03-13T06:52:53.041Z,17.49
2023-03-13T06:55:54.555Z,17.52
2023-03-13T06:58:57.469Z,17.52
2023-03-13T07:02:00.111Z,17.36
2023-03-13T07:05:05.745Z,17.41
2023-03-13T07:08:07.344Z,17.59
2023-03-13T07:11:11.492Z,17.50
2023-03-13T07:14:16.939Z,17.40
2023-03-13T07:17:19.184Z,17.66
2023-03-13T07:20:20.658Z,17.70
2023-03-13T07:23:23.791Z,17.73
2023-03-13T07:26:25.239Z,17.97
2023-03-13T07:29:26.895Z,18.03
2023-03-13T07:32:33.100Z,17.98
2023-03-13T07:35:34.754Z,18.12
2023-03-13T07:38:36.990Z,17.99
2023-03-13T07:41:40.108Z,18.18
2023-03-13T07:44:41.653Z,18.33
2023-03-13T07:47:43.167Z,18.40
2023-03-13T07:50:44.685Z,18.60
2023-03-13T07:53:50.501Z,18.81
2023-03-13T07:56:52.127Z,19.01
2023-03-13T07:59:54.794Z,19.06
2023-03-13T08:02:56.309Z,19.34
2023-03-13T08:05:59.584Z,19.16
2023-03-13T08:09:01.775Z,19.18
2023-03-13T08:12:03.919Z,19.11
2023-03-13T08:15:06.111Z,19.33
2023-03-13T08:18:07.620Z,19.37
2023-03-13T08:21:15.335Z,19.28
2023-03-13T08:24:16.814Z,19.53
2023-03-13T08:27:18.347Z,19.48
2023-03-13T08:30:20.107Z,19.48
2023-03-13T08:33:21.659Z,19.74
2023-03-13T08:36:32.756Z,19.78
2023-03-13T08:39:34.363Z,19.56
2023-03-13T08:42:37.203Z,19.70
2023-03-13T08:45:38.697Z,19.92
2023-03-13T08:48:40.570Z,20.20
2023-03-13T08:51:42.426Z,20.23
2023-03-13T08:54:44.290Z,20.57
2023-03-13T08:57:45.843Z,20.47
2023-03-13T09:00:47.379Z,20.72
2023-03-13T09:03:49.998Z,20.70
2023-03-13T09:06:51.517Z,20.62
2023-03-13T09:09:52.973Z,21.02
2023-03-13T09:12:54.850Z,21.05
2023-03-13T09:15:56.351Z,21.28
2023-03-13T09:18:58.981Z,21.38
2023-03-13T09:22:00.676Z,21.56
2023-03-13T09:25:02.270Z,21.72
2023-03-13T09:28:03.911Z,21.63
2023-03-13T09:31:11.506Z,21.63
2023-03-13T09:34:12.998Z,21.60
2023-03-13T09:37:14.569Z,21.61
2023-03-13T09:40:18.673Z,21.70
2023-03-13T09:44:02.057Z,21.57
2023-03-13T09:47:16.870Z,21.70
2023-03-13T09:50:25.442Z,21.96
2023-03-13T09:53:42.817Z,22.22
2023-03-13T09:56:49.623Z,22.44
2023-03-13T09:59:57.148Z,22.28
2023-03-13T10:03:07.426Z,22.39
2023-03-13T10:06:18.817Z,22.30
2023-03-13T10:09:28.315Z,22.29
2023-03-13T10:12:41.477Z,22.33
2023-03-13T10:15:50.859Z,22.50
2023-03-13T10:18:56.466Z,22.72
2023-03-13T10:22:02.132Z,23.06
2023-03-13T10:25:13.019Z,23.01
2023-03-13T10:28:19.296Z,23.34
2023-03-13T10:31:33.765Z,23.42
2023-03-13T10:34:53.537Z,23.63
2023-03-13T10:38:03.420Z,23.91
2023-03-13T10:41:19.565Z,23.95
2023-03-13T10:44:30.949Z,23.92
2023-03-13T10:47:34.701Z,23.97
2023-03-13T10:50:36.317Z,23.84
2023-03-13T10:53:37.981Z,23.84
2023-03-13T10:56:39.468Z,23.78
2023-03-13T10:59:46.201Z,23.96
2023-03-13T11:02:47.862Z,24.25
2023-03-13T11:06:00.985Z,24.61
2023-03-13T11:09:28.649Z,24.57
2023-03-13T11:12:34.176Z,24.16
2023-03-13T11:15:42.512Z,23.94
2023-03-13T11:19:04.212Z,22.85
2023-03-13T11:22:14.666Z,22.87
2023-03-13T11:25:29.633Z,22.96
2023-03-13T11:29:02.983Z,23.21
2023-03-13T11:32:20.007Z,23.23
2023-03-13T11:35:40.149Z,23.24
2023-03-13T11:38:46.364Z,23.56
2023-03-13T11:42:00.187Z,23.48
2023-03-13T11:45:01.642Z,23.57
2023-03-13T11:48:17.120Z,23.66
2023-03-13T11:51:27.547Z,23.85
2023-03-13T11:54:56.563Z,24.01
2023-03-13T11:58:15.706Z,24.17
2023-03-13T12:01:19.395Z,24.39
2023-03-13T12:04:34.309Z,24.69
2023-03-13T12:07:41.547Z,28.48
2023-03-13T12:10:50.613Z,29.05
2023-03-13T12:14:02.634Z,29.04
2023-03-13T12:17:09.553Z,28.87
2023-03-13T12:20:23.874Z,28.95
2023-03-13T12:23:42.117Z,28.95
2023-03-13T12:26:51.664Z,28.55
2023-03-13T12:30:03.253Z,28.62
2023-03-13T12:33:29.729Z,28.97
2023-03-13T12:36:40.187Z,28.89
2023-03-13T12:39:56.679Z,28.96
2023-03-13T12:43:11.123Z,29.05
2023-03-13T12:46:30.263Z,29.03
2023-03-13T12:49:46.800Z,29.22
2023-03-13T12:52:57.161Z,29.57
2023-03-13T12:56:16.230Z,29.70
2023-03-13T12:59:40.102Z,29.56
2023-03-13T13:02:42.222Z,29.68
2023-03-13T13:06:08.330Z,30.18
2023-03-13T13:09:19.635Z,30.43
2023-03-13T13:12:26.157Z,30.11
2023-03-13T13:15:29.636Z,29.62
2023-03-13T13:18:33.926Z,29.72
2023-03-13T13:21:36.584Z,29.79
2023-03-13T13:24:50.325Z,29.80
2023-03-13T13:27:52.369Z,29.81
2023-03-13T13:30:56.401Z,30.29
2023-03-13T13:33:58.127Z,30.16
2023-03-13T13:37:01.220Z,30.80
2023-03-13T13:40:31.423Z,31.00
2023-03-13T13:44:19.994Z,30.46
2023-03-13T13:47:26.180Z,30.14
2023-03-13T13:50:28.752Z,29.86
2023-03-13T13:53:56.057Z,29.29
2023-03-13T13:57:07.919Z,29.02
2023-03-13T14:00:23.924Z,28.67
2023-03-13T14:03:31.744Z,28.49
2023-03-13T14:06:36.524Z,28.12
2023-03-13T14:09:49.978Z,27.79
2023-03-13T14:12:54.856Z,27.90
2023-03-13T14:15:56.403Z,28.19
2023-03-13T14:18:58.107Z,28.41
2023-03-13T14:22:00.667Z,28.37
2023-03-13T14:25:02.187Z,28.15
2023-03-13T14:28:05.396Z,28.40
2023-03-13T14:31:07.234Z,29.40
2023-03-13T14:34:12.671Z,30.69
2023-03-13T14:37:38.065Z,30.46
2023-03-13T14:40:39.609Z,30.45
2023-03-13T14:43:42.495Z,30.04
2023-03-13T14:46:44.923Z,29.42
2023-03-13T14:49:47.398Z,29.21
2023-03-13T14:52:55.349Z,29.54
2023-03-13T14:56:19.173Z,30.28
2023-03-13T14:59:28.276Z,30.60
2023-03-13T15:02:32.346Z,30.60
2023-03-13T15:05:34.662Z,30.31
2023-03-13T15:08:41.360Z,30.13
2023-03-13T15:11:54.947Z,30.54
2023-03-13T15:14:57.988Z,30.67
2023-03-13T15:17:59.500Z,30.59
2023-03-13T15:21:12.881Z,30.64
2023-03-13T15:24:15.711Z,30.87
2023-03-13T15:27:19.211Z,31.31
2023-03-13T15:30:23.530Z,31.03
2023-03-13T15:33:28.783Z,30.73
2023-03-13T15:36:31.772Z,30.25
2023-03-13T15:39:33.418Z,30.18
2023-03-13T15:42:34.955Z,29.85
2023-03-13T15:45:39.227Z,29.54
2023-03-13T15:48:42.179Z,29.23
2023-03-13T15:51:43.732Z,29.20
2023-03-13T15:54:46.862Z,29.01
2023-03-13T15:57:50.254Z,29.09
2023-03-13T16:00:52.554Z,29.08
2023-03-13T16:03:54.210Z,29.11
2023-03-13T16:06:55.722Z,29.32
2023-03-13T16:09:57.204Z,29.62
2023-03-13T16:12:58.651Z,30.77
2023-03-13T16:16:00.301Z,32.29
2023-03-13T16:19:04.198Z,34.33
2023-03-13T16:22:05.778Z,31.77
2023-03-13T16:25:08.718Z,29.89
2023-03-13T16:28:14.180Z,28.84
2023-03-13T16:31:25.561Z,28.49
2023-03-13T16:34:27.323Z,29.02
2023-03-13T16:37:28.776Z,33.54
2023-03-13T16:40:32.772Z,35.63
2023-03-13T16:43:34.346Z,36.49
2023-03-13T16:46:41.280Z,36.19
2023-03-13T16:49:42.776Z,36.31
2023-03-13T16:52:44.239Z,36.02
2023-03-13T16:55:46.195Z,34.04
2023-03-13T17:03:28.318Z,29.11
2023-03-13T17:06:38.282Z,28.36
2023-03-13T17:09:39.829Z,27.55
2023-03-13T17:12:41.360Z,27.09
2023-03-13T17:15:42.852Z,26.73
2023-03-13T17:18:46.430Z,26.50
2023-03-13T17:21:49.094Z,26.22
2023-03-13T17:24:50.555Z,26.09
2023-03-13T17:27:52.889Z,26.33
2023-03-13T17:30:54.383Z,25.73
2023-03-13T17:33:56.479Z,25.03
2023-03-13T17:37:00.254Z,24.77
2023-03-13T17:40:02.075Z,24.60
2023-03-13T17:43:03.700Z,24.22
2023-03-13T17:46:14.095Z,24.45
2023-03-13T17:49:17.671Z,24.64
2023-03-13T17:52:19.104Z,24.82
2023-03-13T17:55:20.596Z,24.81
2023-03-13T17:58:22.027Z,24.81
2023-03-13T18:01:25.245Z,24.80
2023-03-13T18:04:27.183Z,24.80
2023-03-13T18:07:30.027Z,24.82
2023-03-13T18:10:31.487Z,24.79
2023-03-13T18:13:32.999Z,24.66
2023-03-13T18:16:50.186Z,24.87
2023-03-13T18:19:51.792Z,25.05
2023-03-13T18:22:54.029Z,25.10
2023-03-13T18:25:57.789Z,25.06
2023-03-13T18:29:00.518Z,25.07
2023-03-13T18:32:02.075Z,25.16
2023-03-13T18:35:03.807Z,25.05
2023-03-13T18:38:06.904Z,25.02
2023-03-13T18:41:10.081Z,24.94
2023-03-13T18:44:15.543Z,24.77
2023-03-13T18:47:19.183Z,24.76
2023-03-13T18:50:26.942Z,24.70
2023-03-13T18:53:28.470Z,24.72
2023-03-13T18:56:31.199Z,24.69
2023-03-13T18:59:32.714Z,24.59
2023-03-13T19:02:34.234Z,24.48
2023-03-13T19:05:35.761Z,24.28
2023-03-13T19:08:37.310Z,24.01
2023-03-13T19:11:39.055Z,23.81
2023-03-13T19:14:40.826Z,19.77
2023-03-13T19:17:42.788Z,17.26
2023-03-13T19:20:44.286Z,17.33
2023-03-13T19:23:45.811Z,17.46
2023-03-13T19:26:53.731Z,17.44
2023-03-13T19:29:55.275Z,17.88
2023-03-13T19:32:56.846Z,18.18
2023-03-13T19:35:58.427Z,18.16
2023-03-13T19:39:00.385Z,18.24
2023-03-13T19:42:01.827Z,17.88
2023-03-13T19:45:05.907Z,17.48
2023-03-13T19:48:07.351Z,16.43
2023-03-13T19:51:08.796Z,15.56
2023-03-13T19:54:11.259Z,16.81
2023-03-13T19:57:12.789Z,16.75
2023-03-13T20:00:23.349Z,16.60
2023-03-13T20:03:24.796Z,16.62
2023-03-13T20:06:31.658Z,16.70
2023-03-13T20:09:35.446Z,16.78
2023-03-13T20:12:37.119Z,16.91
2023-03-13T20:15:38.784Z,17.18
2023-03-13T20:18:43.250Z,17.34
2023-03-13T20:21:46.325Z,17.17
2023-03-13T20:24:47.923Z,17.47
2023-03-13T20:27:49.597Z,17.52
2023-03-13T20:30:54.216Z,17.24
2023-03-13T20:33:57.149Z,16.95
2023-03-13T20:36:59.971Z,17.04
2023-03-13T20:40:01.710Z,17.25
2023-03-13T20:43:04.013Z,17.35
2023-03-13T20:46:09.464Z,17.26
2023-03-13T20:49:11.047Z,17.03
2023-03-13T20:52:12.552Z,16.93
2023-03-13T20:55:14.724Z,16.60
2023-03-13T20:58:17.308Z,16.38
2023-03-13T21:01:19.736Z,16.47
2023-03-13T21:04:21.638Z,16.78
2023-03-13T21:07:23.395Z,16.73
2023-03-13T21:10:24.973Z,16.62
2023-03-13T21:13:26.520Z,16.50
2023-03-13T21:16:28.041Z,16.17
2023-03-13T21:19:30.112Z,15.75
2023-03-13T21:22:31.689Z,16.24
2023-03-13T21:25:33.273Z,16.64
2023-03-13T21:28:34.982Z,16.93
2023-03-13T21:31:38.225Z,17.07
2023-03-13T21:34:43.241Z,17.20
2023-03-13T21:37:44.841Z,17.08
2023-03-13T21:40:46.456Z,16.95
2023-03-13T21:43:48.418Z,17.18
2023-03-13T21:46:51.666Z,17.09
2023-03-13T21:49:54.604Z,17.14
2023-03-13T21:52:56.117Z,17.07
2023-03-13T21:55:57.602Z,17.12
2023-03-13T21:58:59.160Z,17.05
2023-03-13T22:02:00.776Z,17.10
2023-03-13T22:05:03.657Z,17.26
2023-03-13T22:08:05.239Z,17.25
2023-03-13T22:11:06.815Z,17.39
2023-03-13T22:14:08.369Z,17.44
2023-03-13T22:17:16.619Z,17.60
2023-03-13T22:20:18.242Z,17.60
2023-03-13T22:23:19.667Z,17.49
2023-03-13T22:26:21.140Z,17.41
2023-03-13T22:29:24.064Z,17.42
2023-03-13T22:32:25.984Z,17.56
2023-03-13T22:35:27.510Z,17.63
2023-03-13T22:38:29.088Z,17.60
2023-03-13T22:41:30.553Z,17.60
2023-03-13T22:44:32.625Z,17.46
2023-03-13T22:47:34.172Z,17.17
2023-03-13T22:50:36.016Z,17.18
2023-03-13T22:53:40.136Z,17.31
2023-03-13T22:56:41.533Z,17.54
2023-03-13T22:59:42.973Z,17.51
2023-03-13T23:02:44.510Z,17.67
2023-03-13T23:05:47.402Z,17.75
2023-03-13T23:08:49.209Z,17.91
2023-03-13T23:11:50.786Z,17.93
2023-03-13T23:14:52.792Z,17.82
2023-03-13T23:17:54.307Z,17.78
2023-03-13T23:20:55.809Z,17.55
2023-03-13T23:23:57.432Z,17.65
2023-03-13T23:26:58.965Z,17.57
2023-03-13T23:30:01.910Z,17.39
2023-03-13T23:33:03.628Z,17.19
2023-03-13T23:36:10.860Z,17.33
2023-03-13T23:39:12.330Z,17.34
2023-03-13T23:42:13.844Z,17.40
2023-03-13T23:45:15.353Z,17.43
2023-03-13T23:48:16.857Z,17.55
2023-03-13T23:51:18.408Z,17.50
2023-03-13T23:54:20.166Z,17.36
2023-03-13T23:57:21.698Z,17.33
